CFG2WR EDDF-EDDB
Flight info
| Callsign | CFG2WR |
|---|---|
| Flight time | 0h 42m |
| Altitude | 31000 |
| Route | TOBAK8F/25C TOBAK N858 SWALM T201 TAMEB T278 KLF |
| Aircraft | A339/H-SADE1E2E3GHIJ3J5M1P2RWXY/LB2D1 |
Departure
| Time | 2026-05-06 15:17 |
|---|---|
| Airport | Frankfurt Main Airport (EDDF) |
Arrival
| Time | 2026-05-06 15:59 |
|---|---|
| Airport | Berlin Brandenburg Airport (EDDB) |
| Time | Latitude | Longitude | Altitude | Speed | Heading |
|---|---|---|---|---|---|
| 2026-05-06 14:50 | 50.04841 | 8.57632 | 382 ft | 0 kts | 206° |
| 2026-05-06 15:04 | 50.04849 | 8.57638 | 382 ft | 2 kts | 206° |
| 2026-05-06 15:04 | 50.04863 | 8.57648 | 382 ft | 2 kts | 206° |
| 2026-05-06 15:05 | 50.04871 | 8.57654 | 382 ft | 1 kts | 206° |
| 2026-05-06 15:05 | 50.04885 | 8.57660 | 382 ft | 2 kts | 168° |
| 2026-05-06 15:05 | 50.04899 | 8.57651 | 382 ft | 2 kts | 136° |
| 2026-05-06 15:05 | 50.04905 | 8.57638 | 382 ft | 0 kts | 114° |
| 2026-05-06 15:06 | 50.04907 | 8.57630 | 381 ft | 0 kts | 113° |
| 2026-05-06 15:09 | 50.04882 | 8.57719 | 381 ft | 10 kts | 115° |
| 2026-05-06 15:09 | 50.04848 | 8.57831 | 381 ft | 11 kts | 116° |
| 2026-05-06 15:09 | 50.04787 | 8.57913 | 381 ft | 12 kts | 160° |
| 2026-05-06 15:10 | 50.04710 | 8.57957 | 381 ft | 12 kts | 160° |
| 2026-05-06 15:10 | 50.04629 | 8.58004 | 381 ft | 13 kts | 160° |
| 2026-05-06 15:10 | 50.04570 | 8.58087 | 381 ft | 11 kts | 98° |
| 2026-05-06 15:10 | 50.04589 | 8.58212 | 381 ft | 12 kts | 69° |
| 2026-05-06 15:11 | 50.04621 | 8.58342 | 381 ft | 13 kts | 69° |
| 2026-05-06 15:11 | 50.04646 | 8.58447 | 381 ft | 9 kts | 69° |
| 2026-05-06 15:11 | 50.04655 | 8.58536 | 381 ft | 5 kts | 112° |
| 2026-05-06 15:11 | 50.04625 | 8.58571 | 381 ft | 6 kts | 155° |
| 2026-05-06 15:12 | 50.04599 | 8.58585 | 381 ft | 0 kts | 165° |
| 2026-05-06 15:14 | 50.04572 | 8.58591 | 381 ft | 6 kts | 182° |
| 2026-05-06 15:15 | 50.04513 | 8.58582 | 381 ft | 9 kts | 191° |
| 2026-05-06 15:15 | 50.04469 | 8.58520 | 381 ft | 8 kts | 245° |
| 2026-05-06 15:15 | 50.04459 | 8.58477 | 381 ft | 0 kts | 251° |
| 2026-05-06 15:16 | 50.04430 | 8.58350 | 381 ft | 37 kts | 250° |
| 2026-05-06 15:16 | 50.04257 | 8.57629 | 381 ft | 102 kts | 250° |
| 2026-05-06 15:16 | 50.03945 | 8.56330 | 395 ft | 152 kts | 250° |
| 2026-05-06 15:16 | 50.03561 | 8.54778 | 951 ft | 153 kts | 250° |
| 2026-05-06 15:17 | 50.03180 | 8.53295 | 1601 ft | 150 kts | 252° |
| 2026-05-06 15:17 | 50.02831 | 8.51788 | 2217 ft | 150 kts | 258° |
| 2026-05-06 15:17 | 50.02702 | 8.50120 | 2541 ft | 162 kts | 276° |
| 2026-05-06 15:17 | 50.02826 | 8.48298 | 2856 ft | 177 kts | 279° |
| 2026-05-06 15:18 | 50.02995 | 8.46312 | 3172 ft | 195 kts | 279° |
| 2026-05-06 15:18 | 50.03181 | 8.44128 | 3514 ft | 213 kts | 281° |
| 2026-05-06 15:18 | 50.03731 | 8.41892 | 3872 ft | 231 kts | 307° |
| 2026-05-06 15:18 | 50.04940 | 8.40133 | 4261 ft | 249 kts | 322° |
| 2026-05-06 15:19 | 50.06361 | 8.38482 | 4782 ft | 262 kts | 322° |
| 2026-05-06 15:19 | 50.07828 | 8.36789 | 5537 ft | 266 kts | 322° |
| 2026-05-06 15:19 | 50.09307 | 8.35062 | 6287 ft | 269 kts | 321° |
| 2026-05-06 15:19 | 50.10862 | 8.33411 | 7008 ft | 276 kts | 333° |
| 2026-05-06 15:20 | 50.12730 | 8.32847 | 7721 ft | 286 kts | 1° |
| 2026-05-06 15:20 | 50.14676 | 8.33541 | 8493 ft | 291 kts | 15° |
| 2026-05-06 15:20 | 50.16617 | 8.34510 | 9246 ft | 295 kts | 16° |
| 2026-05-06 15:20 | 50.18566 | 8.35484 | 9998 ft | 299 kts | 15° |
| 2026-05-06 15:21 | 50.20598 | 8.36476 | 10570 ft | 311 kts | 15° |
| 2026-05-06 15:21 | 50.22702 | 8.37483 | 10940 ft | 329 kts | 15° |
| 2026-05-06 15:21 | 50.24941 | 8.38547 | 11303 ft | 347 kts | 15° |
| 2026-05-06 15:21 | 50.27314 | 8.39746 | 11627 ft | 366 kts | 20° |
| 2026-05-06 15:22 | 50.29616 | 8.41562 | 12033 ft | 380 kts | 31° |
| 2026-05-06 15:22 | 50.31736 | 8.44056 | 12739 ft | 386 kts | 39° |
| 2026-05-06 15:22 | 50.33733 | 8.46807 | 13469 ft | 389 kts | 41° |
| 2026-05-06 15:22 | 50.35766 | 8.49682 | 14196 ft | 393 kts | 41° |
| 2026-05-06 15:23 | 50.37785 | 8.52530 | 14915 ft | 397 kts | 41° |
| 2026-05-06 15:23 | 50.39840 | 8.55413 | 15583 ft | 402 kts | 41° |
| 2026-05-06 15:23 | 50.41935 | 8.58337 | 16227 ft | 406 kts | 41° |
| 2026-05-06 15:23 | 50.44044 | 8.61278 | 16919 ft | 410 kts | 41° |
| 2026-05-06 15:24 | 50.46213 | 8.64226 | 17593 ft | 415 kts | 39° |
| 2026-05-06 15:24 | 50.48432 | 8.67131 | 18188 ft | 420 kts | 40° |
| 2026-05-06 15:24 | 50.50680 | 8.70059 | 18825 ft | 425 kts | 40° |
| 2026-05-06 15:24 | 50.52956 | 8.73042 | 19480 ft | 428 kts | 40° |
| 2026-05-06 15:25 | 50.55199 | 8.76098 | 20134 ft | 431 kts | 44° |
| 2026-05-06 15:25 | 50.57224 | 8.79604 | 20734 ft | 436 kts | 52° |
| 2026-05-06 15:25 | 50.58949 | 8.83553 | 21299 ft | 439 kts | 60° |
| 2026-05-06 15:25 | 50.60447 | 8.87745 | 21878 ft | 443 kts | 62° |
| 2026-05-06 15:26 | 50.61907 | 8.92025 | 22378 ft | 448 kts | 63° |
| 2026-05-06 15:26 | 50.63377 | 8.96349 | 22881 ft | 453 kts | 63° |
| 2026-05-06 15:26 | 50.64866 | 9.00703 | 23377 ft | 457 kts | 62° |
| 2026-05-06 15:26 | 50.66387 | 9.05120 | 23860 ft | 461 kts | 62° |
| 2026-05-06 15:27 | 50.67929 | 9.09579 | 24330 ft | 465 kts | 62° |
| 2026-05-06 15:27 | 50.69477 | 9.14063 | 24791 ft | 469 kts | 63° |
| 2026-05-06 15:27 | 50.70909 | 9.18710 | 25216 ft | 473 kts | 68° |
| 2026-05-06 15:27 | 50.72079 | 9.23556 | 25702 ft | 475 kts | 73° |
| 2026-05-06 15:28 | 50.72980 | 9.28561 | 26177 ft | 477 kts | 78° |
| 2026-05-06 15:28 | 50.73768 | 9.33650 | 26606 ft | 480 kts | 77° |
| 2026-05-06 15:28 | 50.74913 | 9.38644 | 26949 ft | 487 kts | 67° |
| 2026-05-06 15:28 | 50.76348 | 9.43411 | 27422 ft | 490 kts | 65° |
| 2026-05-06 15:29 | 50.77843 | 9.48187 | 27819 ft | 493 kts | 64° |
| 2026-05-06 15:29 | 50.79370 | 9.53026 | 28176 ft | 497 kts | 64° |
| 2026-05-06 15:29 | 50.80919 | 9.57941 | 28625 ft | 499 kts | 65° |
| 2026-05-06 15:29 | 50.82458 | 9.62852 | 29210 ft | 497 kts | 65° |
| 2026-05-06 15:30 | 50.83957 | 9.67659 | 29689 ft | 498 kts | 66° |
| 2026-05-06 15:30 | 50.85472 | 9.72534 | 30070 ft | 500 kts | 66° |
| 2026-05-06 15:30 | 50.86996 | 9.77470 | 30430 ft | 502 kts | 66° |
| 2026-05-06 15:30 | 50.88527 | 9.82437 | 30716 ft | 506 kts | 66° |
| 2026-05-06 15:31 | 50.90072 | 9.87458 | 30742 ft | 507 kts | 66° |
| 2026-05-06 15:31 | 50.93137 | 9.97459 | 30740 ft | 509 kts | 66° |
| 2026-05-06 15:32 | 50.97767 | 10.12646 | 30734 ft | 509 kts | 66° |
| 2026-05-06 15:32 | 51.00856 | 10.22825 | 30734 ft | 509 kts | 66° |
| 2026-05-06 15:33 | 51.03904 | 10.32913 | 30730 ft | 509 kts | 66° |
| 2026-05-06 15:33 | 51.06958 | 10.43061 | 30737 ft | 508 kts | 66° |
| 2026-05-06 15:34 | 51.09974 | 10.53128 | 30739 ft | 508 kts | 66° |
| 2026-05-06 15:34 | 51.13014 | 10.63319 | 30737 ft | 508 kts | 66° |
| 2026-05-06 15:35 | 51.16015 | 10.73418 | 30739 ft | 507 kts | 66° |
| 2026-05-06 15:35 | 51.19026 | 10.83594 | 30744 ft | 507 kts | 66° |
| 2026-05-06 15:36 | 51.22022 | 10.93760 | 30746 ft | 506 kts | 66° |
| 2026-05-06 15:36 | 51.24982 | 11.03847 | 30237 ft | 499 kts | 66° |
| 2026-05-06 15:37 | 51.26440 | 11.08837 | 29560 ft | 498 kts | 66° |
| 2026-05-06 15:37 | 51.27883 | 11.13779 | 28934 ft | 496 kts | 66° |
| 2026-05-06 15:37 | 51.29325 | 11.18733 | 28251 ft | 496 kts | 66° |
| 2026-05-06 15:37 | 51.30779 | 11.23737 | 27544 ft | 495 kts | 66° |
| 2026-05-06 15:38 | 51.32217 | 11.28697 | 27033 ft | 490 kts | 66° |
| 2026-05-06 15:38 | 51.33634 | 11.33590 | 26541 ft | 485 kts | 66° |
| 2026-05-06 15:38 | 51.35026 | 11.38411 | 26035 ft | 480 kts | 66° |
| 2026-05-06 15:38 | 51.36411 | 11.43210 | 25515 ft | 476 kts | 66° |
| 2026-05-06 15:39 | 51.37786 | 11.47995 | 24969 ft | 473 kts | 66° |
| 2026-05-06 15:39 | 51.39151 | 11.52749 | 24450 ft | 468 kts | 66° |
| 2026-05-06 15:39 | 51.40508 | 11.57486 | 23945 ft | 464 kts | 66° |
| 2026-05-06 15:39 | 51.41824 | 11.62088 | 23421 ft | 461 kts | 66° |
| 2026-05-06 15:40 | 51.43155 | 11.66750 | 22884 ft | 457 kts | 67° |
| 2026-05-06 15:40 | 51.44471 | 11.71363 | 22368 ft | 454 kts | 67° |
| 2026-05-06 15:40 | 51.45772 | 11.75942 | 21854 ft | 450 kts | 67° |
| 2026-05-06 15:40 | 51.47061 | 11.80486 | 21340 ft | 447 kts | 67° |
| 2026-05-06 15:41 | 51.48336 | 11.84999 | 20852 ft | 443 kts | 67° |
| 2026-05-06 15:41 | 51.49600 | 11.89480 | 20360 ft | 440 kts | 66° |
| 2026-05-06 15:41 | 51.50854 | 11.93902 | 19855 ft | 437 kts | 66° |
| 2026-05-06 15:41 | 51.52099 | 11.98306 | 19363 ft | 434 kts | 66° |
| 2026-05-06 15:42 | 51.53349 | 12.02742 | 18896 ft | 430 kts | 66° |
| 2026-05-06 15:42 | 51.54557 | 12.07039 | 18414 ft | 428 kts | 66° |
| 2026-05-06 15:42 | 51.55776 | 12.11385 | 17933 ft | 425 kts | 66° |
| 2026-05-06 15:42 | 51.56977 | 12.15682 | 17487 ft | 421 kts | 66° |
| 2026-05-06 15:43 | 51.58173 | 12.19969 | 17002 ft | 418 kts | 66° |
| 2026-05-06 15:43 | 51.59341 | 12.24163 | 16564 ft | 415 kts | 66° |
| 2026-05-06 15:43 | 51.60520 | 12.28401 | 16128 ft | 412 kts | 66° |
| 2026-05-06 15:43 | 51.61677 | 12.32570 | 15818 ft | 407 kts | 66° |
| 2026-05-06 15:44 | 51.62821 | 12.36719 | 15764 ft | 408 kts | 67° |
| 2026-05-06 15:44 | 51.63966 | 12.40876 | 15770 ft | 410 kts | 67° |
| 2026-05-06 15:44 | 51.65308 | 12.44936 | 15745 ft | 410 kts | 52° |
| 2026-05-06 15:44 | 51.67386 | 12.48021 | 15765 ft | 410 kts | 34° |
| 2026-05-06 15:45 | 51.69779 | 12.50483 | 15788 ft | 409 kts | 30° |
| 2026-05-06 15:45 | 51.72219 | 12.52882 | 15774 ft | 410 kts | 30° |
| 2026-05-06 15:45 | 51.74608 | 12.55315 | 15774 ft | 409 kts | 31° |
| 2026-05-06 15:45 | 51.77002 | 12.57849 | 15760 ft | 410 kts | 32° |
| 2026-05-06 15:46 | 51.79351 | 12.60406 | 15685 ft | 406 kts | 33° |
| 2026-05-06 15:46 | 51.81655 | 12.62959 | 15259 ft | 404 kts | 33° |
| 2026-05-06 15:46 | 51.83951 | 12.65528 | 14781 ft | 402 kts | 34° |
| 2026-05-06 15:46 | 51.86243 | 12.68109 | 14315 ft | 400 kts | 34° |
| 2026-05-06 15:47 | 51.88506 | 12.70666 | 13691 ft | 394 kts | 34° |
| 2026-05-06 15:47 | 51.90700 | 12.73155 | 12686 ft | 388 kts | 34° |
| 2026-05-06 15:47 | 51.92884 | 12.75635 | 11693 ft | 382 kts | 34° |
| 2026-05-06 15:47 | 51.95038 | 12.78082 | 10722 ft | 376 kts | 34° |
| 2026-05-06 15:48 | 51.97143 | 12.80476 | 9808 ft | 369 kts | 34° |
| 2026-05-06 15:48 | 51.99203 | 12.82823 | 9271 ft | 351 kts | 34° |
| 2026-05-06 15:48 | 52.01128 | 12.85019 | 8885 ft | 333 kts | 33° |
| 2026-05-06 15:48 | 52.02977 | 12.87134 | 8565 ft | 315 kts | 33° |
| 2026-05-06 15:49 | 52.04718 | 12.89124 | 8288 ft | 299 kts | 33° |
| 2026-05-06 15:49 | 52.06394 | 12.91041 | 7872 ft | 291 kts | 33° |
| 2026-05-06 15:49 | 52.08017 | 12.92896 | 7379 ft | 285 kts | 33° |
| 2026-05-06 15:49 | 52.09617 | 12.94726 | 7120 ft | 271 kts | 33° |
| 2026-05-06 15:50 | 52.11110 | 12.96436 | 6871 ft | 260 kts | 33° |
| 2026-05-06 15:50 | 52.12550 | 12.98089 | 6652 ft | 248 kts | 33° |
| 2026-05-06 15:50 | 52.13918 | 12.99664 | 6446 ft | 236 kts | 32° |
| 2026-05-06 15:50 | 52.15241 | 13.01185 | 6231 ft | 225 kts | 32° |
| 2026-05-06 15:51 | 52.16476 | 13.02602 | 6032 ft | 214 kts | 32° |
| 2026-05-06 15:51 | 52.17670 | 13.03972 | 5856 ft | 203 kts | 33° |
| 2026-05-06 15:51 | 52.18787 | 13.05257 | 5678 ft | 194 kts | 33° |
| 2026-05-06 15:51 | 52.19874 | 13.06509 | 5512 ft | 186 kts | 32° |
| 2026-05-06 15:52 | 52.20909 | 13.07700 | 5372 ft | 179 kts | 33° |
| 2026-05-06 15:52 | 52.21908 | 13.08852 | 5202 ft | 175 kts | 33° |
| 2026-05-06 15:52 | 52.22900 | 13.09996 | 4998 ft | 173 kts | 33° |
| 2026-05-06 15:52 | 52.23882 | 13.11127 | 4799 ft | 172 kts | 33° |
| 2026-05-06 15:53 | 52.24844 | 13.12238 | 4600 ft | 169 kts | 33° |
| 2026-05-06 15:53 | 52.25790 | 13.13356 | 4381 ft | 168 kts | 41° |
| 2026-05-06 15:53 | 52.26569 | 13.14795 | 4174 ft | 168 kts | 54° |
| 2026-05-06 15:53 | 52.27150 | 13.16441 | 3995 ft | 166 kts | 61° |
| 2026-05-06 15:54 | 52.27644 | 13.18107 | 3781 ft | 165 kts | 63° |
| 2026-05-06 15:54 | 52.28117 | 13.19814 | 3566 ft | 165 kts | 64° |
| 2026-05-06 15:54 | 52.28563 | 13.21542 | 3374 ft | 163 kts | 65° |
| 2026-05-06 15:54 | 52.28978 | 13.23231 | 3185 ft | 161 kts | 66° |
| 2026-05-06 15:55 | 52.29382 | 13.24922 | 2992 ft | 160 kts | 66° |
| 2026-05-06 15:55 | 52.29780 | 13.26616 | 2778 ft | 160 kts | 66° |
| 2026-05-06 15:55 | 52.30179 | 13.28323 | 2558 ft | 159 kts | 66° |
| 2026-05-06 15:55 | 52.30573 | 13.30010 | 2342 ft | 159 kts | 66° |
| 2026-05-06 15:56 | 52.30964 | 13.31682 | 2131 ft | 159 kts | 66° |
| 2026-05-06 15:56 | 52.31361 | 13.33376 | 1916 ft | 158 kts | 66° |
| 2026-05-06 15:56 | 52.31744 | 13.35010 | 1699 ft | 153 kts | 66° |
| 2026-05-06 15:56 | 52.32130 | 13.36649 | 1502 ft | 154 kts | 66° |
| 2026-05-06 15:57 | 52.32503 | 13.38231 | 1298 ft | 147 kts | 66° |
| 2026-05-06 15:57 | 52.32863 | 13.39757 | 1095 ft | 141 kts | 66° |
| 2026-05-06 15:57 | 52.33209 | 13.41210 | 921 ft | 136 kts | 66° |
| 2026-05-06 15:57 | 52.33552 | 13.42659 | 753 ft | 136 kts | 66° |
| 2026-05-06 15:58 | 52.33894 | 13.44102 | 572 ft | 136 kts | 66° |
| 2026-05-06 15:58 | 52.34232 | 13.45534 | 389 ft | 135 kts | 67° |
| 2026-05-06 15:58 | 52.34568 | 13.46954 | 206 ft | 134 kts | 67° |
| 2026-05-06 15:58 | 52.34887 | 13.48280 | 175 ft | 114 kts | 68° |
| 2026-05-06 15:59 | 52.35135 | 13.49340 | 175 ft | 84 kts | 68° |
| 2026-05-06 15:59 | 52.35308 | 13.50061 | 175 ft | 47 kts | 69° |
| 2026-05-06 15:59 | 52.35419 | 13.50443 | 175 ft | 27 kts | 53° |
| 2026-05-06 15:59 | 52.35523 | 13.50610 | 175 ft | 20 kts | 39° |
| 2026-05-06 16:00 | 52.35628 | 13.50730 | 175 ft | 14 kts | 14° |
| 2026-05-06 16:00 | 52.35710 | 13.50706 | 175 ft | 12 kts | 339° |
| 2026-05-06 16:00 | 52.35794 | 13.50654 | 175 ft | 13 kts | 338° |
| 2026-05-06 16:00 | 52.35883 | 13.50597 | 175 ft | 14 kts | 339° |
| 2026-05-06 16:01 | 52.35974 | 13.50541 | 175 ft | 13 kts | 338° |
| 2026-05-06 16:01 | 52.36063 | 13.50485 | 175 ft | 13 kts | 338° |
| 2026-05-06 16:01 | 52.36155 | 13.50425 | 175 ft | 14 kts | 338° |
| 2026-05-06 16:01 | 52.36239 | 13.50381 | 175 ft | 9 kts | 357° |
| 2026-05-06 16:02 | 52.36307 | 13.50409 | 175 ft | 10 kts | 20° |
| 2026-05-06 16:02 | 52.36362 | 13.50437 | 175 ft | 7 kts | 13° |
| 2026-05-06 16:02 | 52.36399 | 13.50489 | 175 ft | 7 kts | 65° |
| 2026-05-06 16:02 | 52.36413 | 13.50549 | 175 ft | 2 kts | 71° |
| 2026-05-06 16:03 | 52.36417 | 13.50570 | 175 ft | 1 kts | 70° |
| 2026-05-06 16:03 | 52.36418 | 13.50572 | 175 ft | 0 kts | 70° |